Time;durP1;ratioP1;P1;durP2;ratioP2;P2;SDS_P1;SDS_P2;PMS_P1;PMS_P2;Temp;Humidity;BMP_temperature;BMP_pressure;BME280_temperature;BME280_humidity;BME280_pressure;Samples;Min_cycle;Max_cycle;Signal;HPM_P1;HPM_P2
2023/01/18 00:01:01;;;;;;;;;;;;;;;-16.84;42.24;99203.94;6263160;28;19929;-68
2023/01/18 00:04:04;;;;;;;;;;;;;;;-16.81;42.41;99204.19;6272354;28;19925;-68
2023/01/18 00:07:05;;;;;;;;;;;;;;;-16.72;42.15;99198.09;6271557;28;19924;-67
2023/01/18 00:10:09;;;;;;;;;;;;;;;-16.68;42.04;99200.94;6262251;28;19925;-67
2023/01/18 00:13:11;;;;;;;;;;;;;;;-16.54;41.73;99196.97;6247263;28;19925;-68
2023/01/18 00:16:19;;;;;;;;;;;;;;;-16.59;41.79;99200.78;6247318;28;19932;-67
2023/01/18 00:19:20;;;;;;;;;;;;;;;-16.42;41.92;99200.44;6256220;28;19995;-66
2023/01/18 00:22:21;;;;;;;;;;;;;;;-16.64;41.86;99212.13;6265956;28;20417;-68
2023/01/18 00:25:24;;;;;;;;;;;;;;;-16.94;41.95;99206.50;6267168;28;19924;-67
2023/01/18 00:28:25;;;;;;;;;;;;;;;-17.14;42.22;99209.06;6252315;28;20338;-67
2023/01/18 00:31:29;;;;;;;;;;;;;;;-17.38;42.50;99213.84;6262991;28;19932;-67
2023/01/18 00:34:32;;;;;;;;;;;;;;;-17.64;42.54;99215.88;6266443;28;20023;-67
2023/01/18 00:37:34;;;;;;;;;;;;;;;-17.83;42.89;99211.00;6266580;28;20298;-67
2023/01/18 00:40:35;;;;;;;;;;;;;;;-17.94;42.87;99215.16;6246328;28;20418;-67
2023/01/18 00:43:38;;;;;;;;;;;;;;;-17.74;42.92;99214.28;6269062;28;20015;-67
2023/01/18 00:46:41;;;;;;;;;;;;;;;-17.35;43.26;99213.22;6262748;28;20318;-67
2023/01/18 00:49:43;;;;;;;;;;;;;;;-17.19;42.69;99203.66;6260403;28;19931;-67
2023/01/18 00:52:46;;;;;;;;;;;;;;;-16.57;42.78;99190.06;6264186;28;19925;-67
2023/01/18 00:55:50;;;;;;;;;;;;;;;-16.51;42.31;99192.19;6265603;28;19935;-67
2023/01/18 00:58:53;;;;;;;;;;;;;;;-16.33;42.07;99191.09;6246079;28;19984;-67
2023/01/18 01:01:59;;;;;;;;;;;;;;;-16.18;42.11;99195.56;6273487;28;19924;-67
2023/01/18 01:08:33;;;;;;;;;;;;;;;-16.80;42.46;99200.91;6173664;28;19932;-68
2023/01/18 01:11:34;;;;;;;;;;;;;;;-17.03;42.55;99201.59;6248301;28;20442;-67
2023/01/18 01:28:04;;;;;;;;;;;;;;;-17.15;43.21;99203.16;6258770;28;19925;-68
2023/01/18 01:31:06;;;;;;;;;;;;;;;-17.31;42.85;99208.56;6252579;28;19994;-67
2023/01/18 01:34:09;;;;;;;;;;;;;;;-17.48;43.21;99208.84;6269230;28;19931;-67
2023/01/18 01:37:12;;;;;;;;;;;;;;;-17.56;43.24;99215.75;6268525;28;20019;-68
2023/01/18 01:40:13;;;;;;;;;;;;;;;-17.60;43.05;99207.81;6263409;28;20382;-67
2023/01/18 01:43:15;;;;;;;;;;;;;;;-17.64;43.05;99205.84;6263350;28;19940;-68
2023/01/18 01:46:21;;;;;;;;;;;;;;;-17.74;42.94;99197.53;6249838;28;20391;-67
2023/01/18 01:49:28;;;;;;;;;;;;;;;-17.93;43.06;99206.88;6255606;28;19925;-67
2023/01/18 01:52:33;;;;;;;;;;;;;;;-18.00;43.29;99205.50;6258473;28;19929;-68
2023/01/18 01:55:38;;;;;;;;;;;;;;;-18.06;43.05;99202.44;6262472;28;19931;-67
2023/01/18 01:58:42;;;;;;;;;;;;;;;-18.16;42.91;99198.28;6284004;28;20290;-68
2023/01/18 02:01:46;;;;;;;;;;;;;;;-18.27;43.09;99203.16;6274482;28;19924;-67
2023/01/18 02:04:52;;;;;;;;;;;;;;;-18.25;42.95;99205.06;6285101;28;20378;-70
2023/01/18 02:07:54;;;;;;;;;;;;;;;-18.36;43.07;99200.75;6269988;28;19924;-68
2023/01/18 02:10:57;;;;;;;;;;;;;;;-18.54;43.49;99192.53;6264012;28;20294;-67
2023/01/18 02:14:03;;;;;;;;;;;;;;;-18.69;43.34;99202.16;6284562;28;19924;-68
2023/01/18 02:17:05;;;;;;;;;;;;;;;-18.82;43.73;99199.38;6255840;28;19932;-68
2023/01/18 02:20:08;;;;;;;;;;;;;;;-18.95;43.96;99199.94;6280255;28;20382;-67
2023/01/18 02:23:21;;;;;;;;;;;;;;;-19.01;43.96;99198.53;6291782;28;19924;-68
2023/01/18 02:26:41;;;;;;;;;;;;;;;-19.11;43.44;99211.91;6269962;28;19932;-68
2023/01/18 02:29:54;;;;;;;;;;;;;;;-19.20;43.74;99209.47;6281460;28;20306;-68
2023/01/18 02:33:01;;;;;;;;;;;;;;;-19.28;43.75;99220.47;6254366;28;19924;-67
2023/01/18 02:36:04;;;;;;;;;;;;;;;-19.33;43.87;99207.53;6265791;28;19925;-67
2023/01/18 02:39:09;;;;;;;;;;;;;;;-19.37;43.47;99207.13;6274475;28;20581;-67
2023/01/18 02:49:29;;;;;;;;;;;;;;;-19.55;43.43;99214.78;6253530;28;19925;-66
2023/01/18 02:52:40;;;;;;;;;;;;;;;-19.63;43.33;99220.72;6272027;28;19925;-66
2023/01/18 02:55:47;;;;;;;;;;;;;;;-19.70;43.38;99233.47;6259677;28;20019;-67
2023/01/18 02:58:55;;;;;;;;;;;;;;;-19.74;43.25;99221.41;6279510;28;19925;-67
2023/01/18 03:01:59;;;;;;;;;;;;;;;-19.76;43.97;99232.91;6264122;28;19932;-68
2023/01/18 03:05:03;;;;;;;;;;;;;;;-19.70;43.46;99213.41;6291936;28;20374;-68
2023/01/18 03:08:08;;;;;;;;;;;;;;;-19.62;42.72;99211.56;6249503;28;20375;-67
2023/01/18 03:11:18;;;;;;;;;;;;;;;-19.66;43.27;99214.59;6265735;28;19925;-67
2023/01/18 03:14:19;;;;;;;;;;;;;;;-19.69;43.08;99209.31;6277505;28;19924;-68
2023/01/18 03:17:58;;;;;;;;;;;;;;;-19.67;43.86;99207.78;6269695;28;19968;-68
2023/01/18 03:21:01;;;;;;;;;;;;;;;-19.60;43.17;99213.47;6198765;28;21563;-68
2023/01/18 03:24:04;;;;;;;;;;;;;;;-19.56;42.79;99202.97;6249437;28;19929;-67
2023/01/18 03:33:53;;;;;;;;;;;;;;;-19.08;43.84;99205.50;6267395;28;20378;-68
2023/01/18 03:36:57;;;;;;;;;;;;;;;-19.00;43.30;99202.81;6279071;28;19924;-67
2023/01/18 03:40:03;;;;;;;;;;;;;;;-18.75;43.16;99209.19;6262539;28;19948;-68
2023/01/18 03:43:10;;;;;;;;;;;;;;;-18.74;43.56;99213.47;6260881;28;19978;-69
2023/01/18 03:46:14;;;;;;;;;;;;;;;-18.86;43.64;99222.44;6249353;28;19925;-68
2023/01/18 03:49:17;;;;;;;;;;;;;;;-19.04;43.44;99207.56;6247589;28;20390;-67
2023/01/18 03:52:18;;;;;;;;;;;;;;;-19.18;43.51;99218.03;6284913;28;19924;-68
2023/01/18 03:55:25;;;;;;;;;;;;;;;-19.29;43.61;99226.22;6256040;28;19925;-68
2023/01/18 03:58:30;;;;;;;;;;;;;;;-19.35;43.68;99223.19;6250616;28;19921;-67
2023/01/18 04:01:34;;;;;;;;;;;;;;;-19.40;43.74;99226.91;6264148;28;19925;-68
2023/01/18 04:04:35;;;;;;;;;;;;;;;-19.46;44.20;99213.81;6236219;28;20309;-67
2023/01/18 04:07:36;;;;;;;;;;;;;;;-19.54;43.84;99219.03;6258018;28;19931;-67
2023/01/18 04:10:40;;;;;;;;;;;;;;;-19.55;43.68;99214.78;6268790;28;19924;-67
2023/01/18 04:13:43;;;;;;;;;;;;;;;-19.53;43.71;99218.31;6250395;28;20331;-67
2023/01/18 04:16:44;;;;;;;;;;;;;;;-19.47;43.79;99215.47;6258788;28;19932;-68
2023/01/18 04:19:47;;;;;;;;;;;;;;;-19.37;43.75;99219.66;6257324;28;19925;-68
2023/01/18 04:22:52;;;;;;;;;;;;;;;-19.36;43.69;99218.88;6272258;28;20771;-69
2023/01/18 04:25:53;;;;;;;;;;;;;;;-19.41;43.10;99220.13;6292255;28;19936;-68
2023/01/18 04:28:54;;;;;;;;;;;;;;;-19.43;43.55;99229.16;6260608;28;19972;-68
2023/01/18 04:31:55;;;;;;;;;;;;;;;-19.39;42.93;99238.69;6281014;28;19931;-68
2023/01/18 04:34:56;;;;;;;;;;;;;;;-19.38;42.78;99232.94;6256474;28;20325;-68
2023/01/18 04:37:57;;;;;;;;;;;;;;;-19.41;43.38;99232.69;6251547;28;19921;-68
2023/01/18 04:41:04;;;;;;;;;;;;;;;-19.42;42.63;99235.91;6264263;28;20028;-69
2023/01/18 04:44:05;;;;;;;;;;;;;;;-19.41;43.59;99231.03;6251860;28;19944;-67
2023/01/18 04:47:06;;;;;;;;;;;;;;;-19.35;42.98;99233.22;6252754;28;19925;-68
2023/01/18 04:50:07;;;;;;;;;;;;;;;-19.28;42.55;99240.53;6250469;28;19925;-69
2023/01/18 04:53:11;;;;;;;;;;;;;;;-19.24;42.68;99247.59;6258134;28;19947;-68
2023/01/18 04:56:14;;;;;;;;;;;;;;;-19.19;42.39;99250.47;6255351;28;19925;-67
2023/01/18 04:59:20;;;;;;;;;;;;;;;-19.14;42.55;99255.16;6280250;28;19939;-68
2023/01/18 05:02:21;;;;;;;;;;;;;;;-19.06;42.40;99254.22;6284825;28;20378;-68
2023/01/18 05:05:22;;;;;;;;;;;;;;;-18.99;42.23;99252.25;6295923;28;19927;-67
2023/01/18 05:08:28;;;;;;;;;;;;;;;-18.92;42.22;99262.09;6248341;28;20025;-68
2023/01/18 05:11:31;;;;;;;;;;;;;;;-18.81;42.46;99252.22;6269582;28;20305;-69
2023/01/18 05:14:32;;;;;;;;;;;;;;;-18.69;42.43;99246.47;6264659;28;19933;-69
2023/01/18 05:17:34;;;;;;;;;;;;;;;-18.60;41.74;99253.16;6268905;28;19957;-68
2023/01/18 05:20:34;;;;;;;;;;;;;;;-18.50;42.00;99254.84;6247390;28;19929;-69
2023/01/18 05:23:35;;;;;;;;;;;;;;;-18.41;41.66;99252.25;6245837;28;19925;-67
2023/01/18 05:26:41;;;;;;;;;;;;;;;-18.24;42.02;99248.66;6260525;28;20015;-68
2023/01/18 05:29:42;;;;;;;;;;;;;;;-18.08;41.29;99251.72;6271788;28;19931;-69
2023/01/18 05:32:44;;;;;;;;;;;;;;;-17.98;41.53;99254.22;6260827;28;19924;-67
2023/01/18 05:35:48;;;;;;;;;;;;;;;-17.87;41.19;99252.63;6274282;28;19931;-69
2023/01/18 05:38:53;;;;;;;;;;;;;;;-17.77;41.33;99250.09;6272405;28;19932;-68
2023/01/18 05:41:54;;;;;;;;;;;;;;;-17.66;41.56;99244.31;6245192;28;19925;-68
2023/01/18 05:44:59;;;;;;;;;;;;;;;-17.53;41.45;99241.16;6251877;28;20382;-66
2023/01/18 05:48:06;;;;;;;;;;;;;;;-17.39;41.11;99242.31;6274720;28;20333;-68
2023/01/18 05:51:09;;;;;;;;;;;;;;;-17.14;40.92;99251.84;6246115;28;19925;-68
2023/01/18 05:54:10;;;;;;;;;;;;;;;-16.91;40.96;99241.97;6263807;28;19924;-68
2023/01/18 05:57:14;;;;;;;;;;;;;;;-16.72;40.41;99233.34;6260781;28;19921;-66
2023/01/18 06:00:15;;;;;;;;;;;;;;;-16.39;40.98;99246.03;6270256;28;19925;-67
2023/01/18 06:03:16;;;;;;;;;;;;;;;-16.34;40.78;99232.16;6254328;28;19925;-68
2023/01/18 06:06:20;;;;;;;;;;;;;;;-16.27;41.43;99235.16;6256733;28;19932;-70
2023/01/18 06:09:21;;;;;;;;;;;;;;;-16.17;41.28;99225.91;6271988;28;19929;-67
2023/01/18 06:12:22;;;;;;;;;;;;;;;-16.05;40.98;99231.00;6250790;28;19932;-67
2023/01/18 06:15:23;;;;;;;;;;;;;;;-15.91;40.61;99242.13;6258607;28;21161;-68
2023/01/18 06:18:27;;;;;;;;;;;;;;;-15.78;40.67;99239.78;6282545;28;20091;-67
2023/01/18 06:21:31;;;;;;;;;;;;;;;-15.63;40.30;99250.13;6291586;28;19924;-65
2023/01/18 06:24:34;;;;;;;;;;;;;;;-15.42;39.83;99246.69;6271320;28;19932;-69
2023/01/18 06:27:38;;;;;;;;;;;;;;;-15.22;40.00;99245.63;6273783;28;20289;-70
2023/01/18 06:30:41;;;;;;;;;;;;;;;-15.15;39.49;99246.94;6250137;28;20315;-75
2023/01/18 06:33:42;;;;;;;;;;;;;;;-15.02;40.01;99242.03;6255119;28;19925;-72
2023/01/18 06:36:44;;;;;;;;;;;;;;;-14.98;39.71;99248.19;6252368;28;19925;-73
2023/01/18 06:39:48;;;;;;;;;;;;;;;-14.89;39.54;99250.50;6250068;28;19929;-72
2023/01/18 06:42:49;;;;;;;;;;;;;;;-14.89;39.84;99255.56;6281895;28;20457;-70
2023/01/18 06:45:53;;;;;;;;;;;;;;;-14.76;39.54;99253.16;6269519;28;19924;-68
2023/01/18 06:49:13;;;;;;;;;;;;;;;-14.58;39.20;99259.50;6264784;28;19947;-69
2023/01/18 06:52:48;;;;;;;;;;;;;;;-14.48;39.35;99251.78;6238194;28;19931;-68
2023/01/18 06:56:00;;;;;;;;;;;;;;;-14.40;39.38;99243.88;6267325;28;19929;-69
2023/01/18 06:59:02;;;;;;;;;;;;;;;-14.26;39.40;99248.25;6261835;28;19929;-68
2023/01/18 07:02:08;;;;;;;;;;;;;;;-14.03;38.90;99247.31;6251039;28;19925;-71
2023/01/18 07:05:09;;;;;;;;;;;;;;;-13.51;38.56;99250.84;6257099;28;20418;-67
2023/01/18 07:08:14;;;;;;;;;;;;;;;-12.51;37.87;99244.66;6274054;28;19925;-68
2023/01/18 07:15:55;;;;;;;;;;;;;;;-8.91;33.22;99241.22;6217269;28;19926;-67
2023/01/18 07:18:59;;;;;;;;;;;;;;;-7.93;32.35;99240.72;6220154;28;20307;-67
2023/01/18 07:22:02;;;;;;;;;;;;;;;-6.30;31.53;99232.34;6294820;28;19956;-68
2023/01/18 07:25:04;;;;;;;;;;;;;;;-4.09;28.64;99221.28;6251851;28;20319;-67
2023/01/18 07:28:07;;;;;;;;;;;;;;;-0.30;26.63;99230.19;6297315;28;19924;-67
2023/01/18 07:31:11;;;;;;;;;;;;;;;3.36;23.42;99230.00;6290091;28;19929;-67
2023/01/18 07:34:15;;;;;;;;;;;;;;;6.53;21.80;99234.69;6272988;28;19928;-68
2023/01/18 07:37:18;;;;;;;;;;;;;;;9.52;20.41;99228.84;6290566;28;19924;-68
2023/01/18 07:40:20;;;;;;;;;;;;;;;11.77;19.66;99235.00;6279090;28;20302;-69
2023/01/18 07:43:23;;;;;;;;;;;;;;;13.46;18.94;99220.22;6292400;28;20031;-67
2023/01/18 07:46:28;;;;;;;;;;;;;;;14.56;18.83;99229.88;6297476;28;20010;-67
2023/01/18 07:49:34;;;;;;;;;;;;;;;15.43;18.73;99233.03;6271818;28;19925;-67
2023/01/18 07:52:35;;;;;;;;;;;;;;;16.42;18.60;99224.63;6283228;28;19925;-68
2023/01/18 07:55:37;;;;;;;;;;;;;;;17.28;18.01;99212.97;6281448;28;20405;-73
2023/01/18 07:58:41;;;;;;;;;;;;;;;17.95;16.75;99221.69;6250980;28;19925;-67
2023/01/18 08:01:42;;;;;;;;;;;;;;;18.54;16.91;99228.91;6247302;28;19925;-68
2023/01/18 08:04:48;;;;;;;;;;;;;;;19.09;16.67;99225.56;6252518;28;20019;-68
2023/01/18 08:07:52;;;;;;;;;;;;;;;18.97;16.48;99224.53;6291445;28;20073;-68
2023/01/18 08:10:56;;;;;;;;;;;;;;;18.47;16.28;99227.56;6281626;28;19931;-68
2023/01/18 08:14:00;;;;;;;;;;;;;;;18.30;15.73;99216.09;6277865;28;19928;-69
2023/01/18 08:17:05;;;;;;;;;;;;;;;19.05;16.33;99221.34;6279274;28;20394;-67
2023/01/18 08:20:10;;;;;;;;;;;;;;;19.77;15.77;99221.31;6296776;28;19924;-68
2023/01/18 08:23:11;;;;;;;;;;;;;;;20.10;15.75;99219.09;6295323;28;20350;-69
2023/01/18 08:26:17;;;;;;;;;;;;;;;20.32;14.96;99212.28;6276893;28;19925;-68
2023/01/18 08:29:21;;;;;;;;;;;;;;;20.39;14.76;99208.25;6270741;28;19920;-69
2023/01/18 08:32:25;;;;;;;;;;;;;;;19.94;14.31;99207.69;6253329;28;19925;-69
2023/01/18 08:35:28;;;;;;;;;;;;;;;19.29;14.45;99200.28;6268676;28;19932;-68
2023/01/18 08:38:35;;;;;;;;;;;;;;;19.68;14.65;99207.59;6270077;28;19925;-68
2023/01/18 08:41:36;;;;;;;;;;;;;;;20.33;13.36;99206.00;6293826;28;19924;-69
2023/01/18 08:44:39;;;;;;;;;;;;;;;20.57;13.53;99207.00;6295639;28;19924;-68
2023/01/18 08:47:42;;;;;;;;;;;;;;;20.88;13.64;99207.56;6284106;28;20437;-67
2023/01/18 08:50:50;;;;;;;;;;;;;;;20.95;13.50;99200.81;6295840;28;19924;-67
2023/01/18 08:53:55;;;;;;;;;;;;;;;21.10;12.97;99198.03;6277007;28;19921;-67
2023/01/18 08:56:58;;;;;;;;;;;;;;;21.61;12.74;99200.63;6286109;28;19931;-68
2023/01/18 09:00:03;;;;;;;;;;;;;;;21.73;12.92;99202.38;6295380;28;20394;-68
2023/01/18 09:03:07;;;;;;;;;;;;;;;21.44;12.55;99202.69;6295808;28;19998;-68
2023/01/18 09:06:08;;;;;;;;;;;;;;;21.04;12.54;99196.63;6284609;28;19947;-68
2023/01/18 09:09:10;;;;;;;;;;;;;;;20.73;12.55;99208.66;6270414;28;19951;-69
2023/01/18 09:12:14;;;;;;;;;;;;;;;20.05;12.89;99198.97;6294590;28;20302;-68
2023/01/18 09:15:17;;;;;;;;;;;;;;;19.82;12.94;99204.03;6278537;28;19930;-68
2023/01/18 09:18:18;;;;;;;;;;;;;;;20.18;12.76;99195.38;6289241;28;20058;-68
2023/01/18 09:21:22;;;;;;;;;;;;;;;20.68;12.36;99186.69;6286252;28;20449;-67
2023/01/18 09:24:25;;;;;;;;;;;;;;;20.79;11.74;99189.47;6247590;28;20409;-68
2023/01/18 09:27:27;;;;;;;;;;;;;;;20.42;12.35;99194.66;6292415;28;19932;-67
2023/01/18 09:30:28;;;;;;;;;;;;;;;20.24;12.12;99177.19;6278341;28;19925;-68
2023/01/18 09:33:31;;;;;;;;;;;;;;;20.29;12.00;99178.59;6276710;28;19929;-68
2023/01/18 09:36:33;;;;;;;;;;;;;;;20.55;11.12;99175.97;6273376;28;19924;-67
2023/01/18 09:39:34;;;;;;;;;;;;;;;20.89;10.15;99174.50;6247836;28;20027;-68
2023/01/18 09:42:39;;;;;;;;;;;;;;;20.94;10.08;99175.00;6297855;28;19931;-69
2023/01/18 09:45:43;;;;;;;;;;;;;;;20.74;10.21;99183.59;6293231;28;19931;-67
2023/01/18 09:48:44;;;;;;;;;;;;;;;20.63;11.06;99179.81;6287139;28;19931;-67
2023/01/18 09:51:47;;;;;;;;;;;;;;;20.79;11.61;99184.13;6285497;28;19924;-69
2023/01/18 09:54:48;;;;;;;;;;;;;;;20.79;11.33;99184.97;6275167;28;19925;-67
2023/01/18 09:58:10;;;;;;;;;;;;;;;20.55;8.73;99189.34;6289149;28;19931;-68
2023/01/18 10:01:18;;;;;;;;;;;;;;;20.02;11.35;99193.84;6273235;28;19932;-69
2023/01/18 10:04:24;;;;;;;;;;;;;;;19.70;9.50;99184.31;6257269;28;20027;-68
2023/01/18 10:07:27;;;;;;;;;;;;;;;19.19;11.50;99175.13;6274153;28;19925;-70
2023/01/18 10:10:35;;;;;;;;;;;;;;;18.85;9.96;99174.56;6260342;28;19925;-69
2023/01/18 10:13:45;;;;;;;;;;;;;;;18.68;11.50;99180.91;6270479;28;20414;-67
2023/01/18 10:16:56;;;;;;;;;;;;;;;18.67;10.37;99171.22;6265120;28;20405;-69
2023/01/18 10:20:00;;;;;;;;;;;;;;;18.00;11.29;99169.94;6261762;28;19928;-63
2023/01/18 10:23:18;;;;;;;;;;;;;;;17.08;12.08;99165.34;6250392;28;19928;-64
2023/01/18 10:26:21;;;;;;;;;;;;;;;16.05;11.83;99168.06;6275543;28;19929;-65
2023/01/18 10:29:42;;;;;;;;;;;;;;;14.45;11.82;99169.38;6263862;28;20318;-68
2023/01/18 10:32:47;;;;;;;;;;;;;;;12.60;11.91;99167.09;6286785;28;19932;-63
2023/01/18 10:36:03;;;;;;;;;;;;;;;11.18;13.08;99172.66;6265630;28;19924;-63
2023/01/18 10:39:21;;;;;;;;;;;;;;;9.54;13.73;99170.09;6287231;28;19924;-65
2023/01/18 10:42:25;;;;;;;;;;;;;;;5.21;16.47;99170.50;6280541;28;20019;-65
2023/01/18 10:45:31;;;;;;;;;;;;;;;1.61;17.82;99173.72;6294522;28;19925;-65
2023/01/18 10:48:34;;;;;;;;;;;;;;;-0.85;18.90;99169.81;6254341;28;19925;-64
2023/01/18 10:51:39;;;;;;;;;;;;;;;-2.34;20.33;99171.94;6273668;28;19925;-64
2023/01/18 10:54:54;;;;;;;;;;;;;;;-3.32;20.49;99166.88;6269309;28;19925;-65
2023/01/18 10:57:58;;;;;;;;;;;;;;;-4.04;20.47;99166.56;6298130;28;19924;-64
2023/01/18 11:01:00;;;;;;;;;;;;;;;-4.62;20.91;99161.34;6272082;28;19932;-64
2023/01/18 11:04:07;;;;;;;;;;;;;;;-5.10;21.29;99166.63;6268615;28;19929;-66
2023/01/18 11:07:11;;;;;;;;;;;;;;;-5.77;21.31;99171.97;6263539;28;19936;-65
2023/01/18 11:10:26;;;;;;;;;;;;;;;-6.26;21.90;99172.72;6292075;28;19917;-65
2023/01/18 11:13:43;;;;;;;;;;;;;;;-6.81;22.18;99176.53;6292326;28;20500;-65
2023/01/18 11:16:56;;;;;;;;;;;;;;;-7.35;22.09;99170.88;6290474;28;20011;-65
2023/01/18 11:20:07;;;;;;;;;;;;;;;-7.70;21.69;99171.09;6272557;28;20395;-65
2023/01/18 11:23:08;;;;;;;;;;;;;;;-8.11;22.57;99178.59;6248537;28;19932;-65
2023/01/18 11:26:13;;;;;;;;;;;;;;;-8.36;22.46;99172.34;6272297;28;20042;-65
2023/01/18 11:29:14;;;;;;;;;;;;;;;-8.60;22.87;99173.00;6265176;28;19925;-65
2023/01/18 11:32:29;;;;;;;;;;;;;;;-8.91;22.77;99172.31;6251740;28;20078;-65
2023/01/18 11:35:35;;;;;;;;;;;;;;;-9.11;22.62;99172.22;6270865;28;19925;-65
2023/01/18 11:38:36;;;;;;;;;;;;;;;-9.27;22.87;99179.91;6265453;28;20022;-65
2023/01/18 11:41:37;;;;;;;;;;;;;;;-9.34;23.57;99185.47;6277163;28;20027;-64
2023/01/18 11:44:43;;;;;;;;;;;;;;;-9.43;24.02;99180.78;6263608;28;19932;-63
2023/01/18 11:47:56;;;;;;;;;;;;;;;-9.99;25.60;99178.72;6260882;28;19925;-64
2023/01/18 11:51:05;;;;;;;;;;;;;;;-10.32;25.44;99177.88;6261502;28;19970;-64
2023/01/18 11:54:11;;;;;;;;;;;;;;;-10.59;25.40;99180.63;6268061;28;19924;-64
2023/01/18 11:57:15;;;;;;;;;;;;;;;-10.77;24.57;99177.97;6253594;28;19925;-65
2023/01/18 12:00:27;;;;;;;;;;;;;;;-10.94;25.04;99184.66;6257671;28;19933;-65
2023/01/18 12:03:48;;;;;;;;;;;;;;;-11.08;24.80;99186.41;6267649;28;19925;-67
2023/01/18 12:06:58;;;;;;;;;;;;;;;-11.23;24.77;99179.59;6265794;28;19932;-64
2023/01/18 12:10:00;;;;;;;;;;;;;;;-11.34;24.74;99182.38;6257446;28;19932;-64
2023/01/18 12:13:04;;;;;;;;;;;;;;;-11.43;25.06;99186.06;6259370;28;20366;-67
2023/01/18 12:16:07;;;;;;;;;;;;;;;-11.51;25.15;99177.97;6261241;28;20015;-65
2023/01/18 12:19:26;;;;;;;;;;;;;;;-11.58;25.17;99180.94;6260768;28;19925;-66
2023/01/18 12:22:39;;;;;;;;;;;;;;;-11.66;25.70;99189.75;6265647;28;19954;-67
2023/01/18 12:26:00;;;;;;;;;;;;;;;-11.74;27.66;99193.53;6268116;28;20011;-63
2023/01/18 12:29:07;;;;;;;;;;;;;;;-11.64;27.90;99195.81;6261464;28;20410;-63
2023/01/18 12:32:24;;;;;;;;;;;;;;;-11.85;27.83;99186.13;6246128;28;19924;-64
2023/01/18 12:35:37;;;;;;;;;;;;;;;-11.96;27.00;99197.34;6267828;28;19927;-64
2023/01/18 12:38:50;;;;;;;;;;;;;;;-12.04;26.64;99198.53;6269447;28;20425;-64
2023/01/18 12:41:53;;;;;;;;;;;;;;;-12.17;26.92;99196.00;6273042;28;19925;-62
2023/01/18 12:45:03;;;;;;;;;;;;;;;-12.31;27.79;99197.69;6258545;28;20331;-63
2023/01/18 12:48:27;;;;;;;;;;;;;;;-12.44;27.22;99201.16;6268795;28;20306;-64
2023/01/18 12:51:30;;;;;;;;;;;;;;;-12.59;27.28;99201.06;6273613;28;20343;-64
2023/01/18 12:54:31;;;;;;;;;;;;;;;-12.71;27.64;99196.13;6272667;28;20413;-63
2023/01/18 12:57:34;;;;;;;;;;;;;;;-12.83;30.24;99199.50;6245808;28;19925;-64
2023/01/18 13:00:37;;;;;;;;;;;;;;;-12.92;28.11;99204.88;6245612;28;19931;-64
2023/01/18 13:03:44;;;;;;;;;;;;;;;-13.01;27.90;99196.69;6243170;28;19925;-63
2023/01/18 13:06:47;;;;;;;;;;;;;;;-13.09;28.53;99210.50;6258917;28;19947;-63
2023/01/18 13:09:50;;;;;;;;;;;;;;;-13.20;28.12;99213.22;6269565;28;19925;-65
2023/01/18 13:12:56;;;;;;;;;;;;;;;-13.33;28.07;99220.84;6255188;28;19931;-64
2023/01/18 13:16:09;;;;;;;;;;;;;;;-13.50;27.86;99217.19;6245170;28;20248;-65
2023/01/18 13:19:36;;;;;;;;;;;;;;;-13.66;28.51;99220.34;6246892;28;19991;-63
2023/01/18 13:23:01;;;;;;;;;;;;;;;-13.77;28.30;99217.84;6254216;28;19933;-64
2023/01/18 13:26:09;;;;;;;;;;;;;;;-13.88;28.25;99207.00;6256381;28;20023;-65
2023/01/18 13:29:16;;;;;;;;;;;;;;;-14.00;28.62;99206.19;6265993;28;19928;-63
2023/01/18 13:32:21;;;;;;;;;;;;;;;-14.08;28.69;99214.09;6244971;28;20005;-64
2023/01/18 13:35:31;;;;;;;;;;;;;;;-14.14;29.08;99213.69;6238842;28;19972;-64
2023/01/18 13:38:48;;;;;;;;;;;;;;;-14.22;29.25;99211.41;6258826;28;19925;-64
2023/01/18 13:41:58;;;;;;;;;;;;;;;-14.35;29.33;99213.09;6263693;28;19928;-65
2023/01/18 13:45:13;;;;;;;;;;;;;;;-14.43;28.64;99219.25;6266627;28;20019;-63
2023/01/18 13:48:41;;;;;;;;;;;;;;;-14.39;29.77;99216.16;6261872;28;19955;-63
2023/01/18 13:51:48;;;;;;;;;;;;;;;-14.51;30.40;99215.31;6236283;28;19925;-64
2023/01/18 13:54:55;;;;;;;;;;;;;;;-14.55;30.43;99209.19;6264198;28;19936;-64
2023/01/18 13:58:00;;;;;;;;;;;;;;;-14.53;30.33;99206.75;6270147;28;19974;-65
2023/01/18 14:01:04;;;;;;;;;;;;;;;-14.54;29.42;99205.88;6258422;28;19932;-65
2023/01/18 14:04:27;;;;;;;;;;;;;;;-14.60;31.02;99195.34;6251273;28;19924;-64
2023/01/18 14:07:29;;;;;;;;;;;;;;;-14.42;30.91;99202.44;6250588;28;19936;-64
2023/01/18 14:10:45;;;;;;;;;;;;;;;-14.51;32.47;99197.63;6253814;28;19925;-65
2023/01/18 14:13:54;;;;;;;;;;;;;;;-14.37;31.72;99193.53;6244202;28;19925;-64
2023/01/18 14:16:58;;;;;;;;;;;;;;;-14.49;31.61;99194.44;6260058;28;19924;-64
2023/01/18 14:20:18;;;;;;;;;;;;;;;-14.55;32.07;99188.97;6259325;28;19948;-65
2023/01/18 14:23:42;;;;;;;;;;;;;;;-14.60;33.13;99205.47;6263747;28;20029;-72
2023/01/18 14:26:47;;;;;;;;;;;;;;;-14.71;32.15;99197.13;6248030;28;19936;-72
2023/01/18 14:29:54;;;;;;;;;;;;;;;-14.80;31.80;99195.56;6231750;28;19925;-71
2023/01/18 14:33:05;;;;;;;;;;;;;;;-14.93;31.42;99189.66;6253219;28;19925;-70
2023/01/18 14:36:17;;;;;;;;;;;;;;;-15.07;31.70;99192.84;6260873;28;19924;-70
2023/01/18 14:39:20;;;;;;;;;;;;;;;-15.21;31.80;99185.91;6260660;28;19925;-70
2023/01/18 14:42:23;;;;;;;;;;;;;;;-15.33;31.56;99190.06;6271131;28;19970;-71
2023/01/18 14:45:29;;;;;;;;;;;;;;;-15.44;31.64;99197.72;6268332;28;20321;-70
2023/01/18 14:48:38;;;;;;;;;;;;;;;-15.53;32.07;99199.59;6255703;28;20309;-69
2023/01/18 14:51:48;;;;;;;;;;;;;;;-15.58;31.84;99198.34;6258836;28;20435;-69
2023/01/18 14:54:53;;;;;;;;;;;;;;;-15.58;31.55;99198.34;6257921;28;19925;-69
2023/01/18 14:58:01;;;;;;;;;;;;;;;-15.64;32.06;99195.38;6255833;28;20027;-69
2023/01/18 15:01:02;;;;;;;;;;;;;;;-15.69;32.20;99194.19;6254032;28;19936;-69
2023/01/18 15:04:17;;;;;;;;;;;;;;;-15.73;31.97;99192.22;6247946;28;19925;-69
2023/01/18 15:07:25;;;;;;;;;;;;;;;-15.75;31.95;99188.69;6248785;28;19970;-70
2023/01/18 15:10:27;;;;;;;;;;;;;;;-15.78;32.49;99184.28;6257143;28;19925;-69
2023/01/18 15:13:31;;;;;;;;;;;;;;;-15.78;32.77;99193.50;6258751;28;19925;-69
2023/01/18 15:16:33;;;;;;;;;;;;;;;-15.81;32.16;99185.72;6254101;28;19931;-68
2023/01/18 15:19:38;;;;;;;;;;;;;;;-15.89;32.51;99186.00;6253597;28;20016;-69
2023/01/18 15:22:43;;;;;;;;;;;;;;;-15.97;32.65;99187.06;6231113;28;19932;-69
2023/01/18 15:25:47;;;;;;;;;;;;;;;-16.02;33.43;99188.34;6263350;28;20431;-69
2023/01/18 15:29:03;;;;;;;;;;;;;;;-16.09;32.45;99181.97;6267444;28;19927;-70
2023/01/18 15:32:15;;;;;;;;;;;;;;;-16.17;32.55;99192.25;6248813;28;20310;-69
2023/01/18 15:35:21;;;;;;;;;;;;;;;-16.23;32.41;99191.78;6255201;28;19921;-69
2023/01/18 15:38:22;;;;;;;;;;;;;;;-16.28;33.68;99188.03;6264703;28;19925;-68
2023/01/18 15:41:24;;;;;;;;;;;;;;;-16.32;36.39;99187.81;6258967;28;19920;-69
2023/01/18 15:44:36;;;;;;;;;;;;;;;-16.33;33.98;99173.44;6267331;28;21375;-69
2023/01/18 15:47:37;;;;;;;;;;;;;;;-16.31;34.37;99178.59;6264285;28;20302;-69
2023/01/18 15:50:47;;;;;;;;;;;;;;;-16.32;33.12;99176.84;6261889;28;19937;-69
2023/01/18 15:53:54;;;;;;;;;;;;;;;-16.39;33.07;99178.00;6249553;28;19980;-70
2023/01/18 15:57:09;;;;;;;;;;;;;;;-16.45;33.52;99167.44;6250002;28;19968;-70
2023/01/18 16:00:25;;;;;;;;;;;;;;;-16.49;33.31;99168.00;6248587;28;20430;-70
2023/01/18 16:03:32;;;;;;;;;;;;;;;-16.48;33.15;99164.69;6267183;28;19925;-70
2023/01/18 16:06:36;;;;;;;;;;;;;;;-16.48;33.22;99173.91;6240656;28;20063;-70
2023/01/18 16:09:39;;;;;;;;;;;;;;;-16.50;32.96;99175.41;6252581;28;19925;-69
2023/01/18 16:12:41;;;;;;;;;;;;;;;-16.55;32.98;99165.00;6268512;28;19924;-69
2023/01/18 16:16:01;;;;;;;;;;;;;;;-16.60;32.92;99168.81;6260360;28;20405;-69
2023/01/18 16:19:09;;;;;;;;;;;;;;;-16.63;32.99;99161.88;6251443;28;19995;-75
2023/01/18 16:22:29;;;;;;;;;;;;;;;-16.65;33.39;99160.00;6248161;28;20287;-66
2023/01/18 16:25:36;;;;;;;;;;;;;;;-16.69;33.36;99152.97;6251133;28;20067;-68
2023/01/18 16:28:39;;;;;;;;;;;;;;;-16.73;33.25;99150.97;6248495;28;19925;-66
2023/01/18 16:31:42;;;;;;;;;;;;;;;-16.77;33.93;99150.75;6255293;28;19932;-72
2023/01/18 16:34:48;;;;;;;;;;;;;;;-16.77;33.30;99144.84;6261908;28;20657;-67